sensor_id;sensor_type;location;lat;lon;timestamp;P1;durP1;ratioP1;P2;durP2;ratioP2
52668;SDS011;59898;52.786;6.892;2023-05-23T00:00:30;27.35;;;17.95;;
52668;SDS011;59898;52.786;6.892;2023-05-23T00:03:52;33.88;;;18.92;;
52668;SDS011;59898;52.786;6.892;2023-05-23T00:07:15;28.02;;;17.80;;
52668;SDS011;59898;52.786;6.892;2023-05-23T00:10:35;32.17;;;19.25;;
52668;SDS011;59898;52.786;6.892;2023-05-23T00:13:56;31.85;;;20.55;;
52668;SDS011;59898;52.786;6.892;2023-05-23T00:17:19;30.55;;;18.65;;
52668;SDS011;59898;52.786;6.892;2023-05-23T00:20:44;38.40;;;21.13;;
52668;SDS011;59898;52.786;6.892;2023-05-23T00:24:05;37.97;;;20.10;;
52668;SDS011;59898;52.786;6.892;2023-05-23T00:27:26;34.38;;;20.02;;
52668;SDS011;59898;52.786;6.892;2023-05-23T00:30:47;29.25;;;20.77;;
52668;SDS011;59898;52.786;6.892;2023-05-23T00:34:08;39.88;;;19.85;;
52668;SDS011;59898;52.786;6.892;2023-05-23T00:37:29;33.25;;;18.20;;
52668;SDS011;59898;52.786;6.892;2023-05-23T00:40:49;25.15;;;16.90;;
52668;SDS011;59898;52.786;6.892;2023-05-23T00:44:10;27.50;;;18.48;;
52668;SDS011;59898;52.786;6.892;2023-05-23T00:47:30;26.17;;;16.60;;
52668;SDS011;59898;52.786;6.892;2023-05-23T00:50:51;27.52;;;17.90;;
52668;SDS011;59898;52.786;6.892;2023-05-23T00:54:12;28.15;;;18.58;;
52668;SDS011;59898;52.786;6.892;2023-05-23T00:57:35;26.40;;;16.90;;
52668;SDS011;59898;52.786;6.892;2023-05-23T01:00:59;26.80;;;18.65;;
52668;SDS011;59898;52.786;6.892;2023-05-23T01:04:20;28.25;;;17.67;;
52668;SDS011;59898;52.786;6.892;2023-05-23T01:07:47;23.70;;;16.58;;
52668;SDS011;59898;52.786;6.892;2023-05-23T01:21:57;17.17;;;13.18;;
52668;SDS011;59898;52.786;6.892;2023-05-23T01:29:03;21.23;;;12.32;;
52668;SDS011;59898;52.786;6.892;2023-05-23T01:32:29;17.27;;;12.70;;
52668;SDS011;59898;52.786;6.892;2023-05-23T01:35:51;18.70;;;13.90;;
52668;SDS011;59898;52.786;6.892;2023-05-23T01:39:12;16.52;;;11.80;;
52668;SDS011;59898;52.786;6.892;2023-05-23T01:42:33;21.02;;;14.25;;
52668;SDS011;59898;52.786;6.892;2023-05-23T01:45:53;19.83;;;14.18;;
52668;SDS011;59898;52.786;6.892;2023-05-23T01:49:16;19.23;;;13.85;;
52668;SDS011;59898;52.786;6.892;2023-05-23T01:52:38;21.37;;;14.87;;
52668;SDS011;59898;52.786;6.892;2023-05-23T01:55:59;19.35;;;14.38;;
52668;SDS011;59898;52.786;6.892;2023-05-23T01:59:22;24.33;;;16.63;;
52668;SDS011;59898;52.786;6.892;2023-05-23T02:02:43;22.67;;;17.38;;
52668;SDS011;59898;52.786;6.892;2023-05-23T02:06:04;24.90;;;16.67;;
52668;SDS011;59898;52.786;6.892;2023-05-23T02:09:24;29.20;;;18.35;;
52668;SDS011;59898;52.786;6.892;2023-05-23T02:12:45;22.95;;;17.30;;
52668;SDS011;59898;52.786;6.892;2023-05-23T02:16:05;25.20;;;16.63;;
52668;SDS011;59898;52.786;6.892;2023-05-23T02:19:26;20.10;;;14.32;;
52668;SDS011;59898;52.786;6.892;2023-05-23T02:22:47;19.55;;;13.20;;
52668;SDS011;59898;52.786;6.892;2023-05-23T02:26:08;18.00;;;12.23;;
52668;SDS011;59898;52.786;6.892;2023-05-23T02:29:28;16.70;;;11.85;;
52668;SDS011;59898;52.786;6.892;2023-05-23T02:32:49;14.40;;;11.30;;
52668;SDS011;59898;52.786;6.892;2023-05-23T02:36:10;15.30;;;12.35;;
52668;SDS011;59898;52.786;6.892;2023-05-23T02:39:31;17.30;;;11.07;;
52668;SDS011;59898;52.786;6.892;2023-05-23T02:42:51;16.23;;;11.65;;
52668;SDS011;59898;52.786;6.892;2023-05-23T02:46:12;17.42;;;11.15;;
52668;SDS011;59898;52.786;6.892;2023-05-23T02:49:32;16.10;;;10.10;;
52668;SDS011;59898;52.786;6.892;2023-05-23T02:52:53;18.08;;;10.10;;
52668;SDS011;59898;52.786;6.892;2023-05-23T02:56:13;15.52;;;9.82;;
52668;SDS011;59898;52.786;6.892;2023-05-23T02:59:34;17.40;;;10.70;;
52668;SDS011;59898;52.786;6.892;2023-05-23T03:02:55;15.30;;;9.98;;
52668;SDS011;59898;52.786;6.892;2023-05-23T03:06:16;16.70;;;9.75;;
52668;SDS011;59898;52.786;6.892;2023-05-23T03:09:36;20.98;;;9.88;;
52668;SDS011;59898;52.786;6.892;2023-05-23T03:12:57;17.67;;;10.55;;
52668;SDS011;59898;52.786;6.892;2023-05-23T03:16:17;20.58;;;10.05;;
52668;SDS011;59898;52.786;6.892;2023-05-23T03:19:38;20.13;;;10.68;;
52668;SDS011;59898;52.786;6.892;2023-05-23T03:22:58;18.35;;;12.18;;
52668;SDS011;59898;52.786;6.892;2023-05-23T03:26:19;18.52;;;10.07;;
52668;SDS011;59898;52.786;6.892;2023-05-23T03:29:40;17.73;;;10.50;;
52668;SDS011;59898;52.786;6.892;2023-05-23T03:33:01;19.63;;;7.97;;
52668;SDS011;59898;52.786;6.892;2023-05-23T03:36:22;10.88;;;7.32;;
52668;SDS011;59898;52.786;6.892;2023-05-23T03:39:44;10.00;;;6.68;;
52668;SDS011;59898;52.786;6.892;2023-05-23T03:43:05;11.80;;;6.38;;
52668;SDS011;59898;52.786;6.892;2023-05-23T03:46:27;9.02;;;5.68;;
52668;SDS011;59898;52.786;6.892;2023-05-23T03:49:48;7.53;;;5.25;;
52668;SDS011;59898;52.786;6.892;2023-05-23T03:53:09;15.32;;;6.40;;
52668;SDS011;59898;52.786;6.892;2023-05-23T03:56:30;18.67;;;6.85;;
52668;SDS011;59898;52.786;6.892;2023-05-23T03:59:50;16.98;;;7.63;;
52668;SDS011;59898;52.786;6.892;2023-05-23T04:03:11;18.92;;;9.93;;
52668;SDS011;59898;52.786;6.892;2023-05-23T04:06:34;23.17;;;9.18;;
52668;SDS011;59898;52.786;6.892;2023-05-23T04:09:55;19.58;;;8.35;;
52668;SDS011;59898;52.786;6.892;2023-05-23T04:13:16;23.77;;;9.40;;
52668;SDS011;59898;52.786;6.892;2023-05-23T04:16:36;16.85;;;8.80;;
52668;SDS011;59898;52.786;6.892;2023-05-23T04:20:00;18.75;;;9.50;;
52668;SDS011;59898;52.786;6.892;2023-05-23T04:23:21;19.02;;;8.88;;
52668;SDS011;59898;52.786;6.892;2023-05-23T04:26:41;26.02;;;10.60;;
52668;SDS011;59898;52.786;6.892;2023-05-23T04:30:02;21.25;;;9.70;;
52668;SDS011;59898;52.786;6.892;2023-05-23T04:33:23;16.77;;;9.10;;
52668;SDS011;59898;52.786;6.892;2023-05-23T04:36:44;16.20;;;9.05;;
52668;SDS011;59898;52.786;6.892;2023-05-23T04:40:05;19.50;;;9.10;;
52668;SDS011;59898;52.786;6.892;2023-05-23T04:43:26;18.08;;;7.78;;
52668;SDS011;59898;52.786;6.892;2023-05-23T04:46:48;14.13;;;7.55;;
52668;SDS011;59898;52.786;6.892;2023-05-23T04:50:09;10.15;;;7.43;;
52668;SDS011;59898;52.786;6.892;2023-05-23T04:53:30;12.30;;;6.30;;
52668;SDS011;59898;52.786;6.892;2023-05-23T04:56:51;13.25;;;5.72;;
52668;SDS011;59898;52.786;6.892;2023-05-23T05:00:11;13.63;;;7.07;;
52668;SDS011;59898;52.786;6.892;2023-05-23T05:03:33;12.93;;;5.97;;
52668;SDS011;59898;52.786;6.892;2023-05-23T05:06:54;17.65;;;6.53;;
52668;SDS011;59898;52.786;6.892;2023-05-23T05:10:15;13.45;;;6.20;;
52668;SDS011;59898;52.786;6.892;2023-05-23T05:13:36;8.43;;;5.78;;
52668;SDS011;59898;52.786;6.892;2023-05-23T05:16:57;13.18;;;6.65;;
52668;SDS011;59898;52.786;6.892;2023-05-23T05:20:18;15.68;;;6.55;;
52668;SDS011;59898;52.786;6.892;2023-05-23T05:23:38;16.05;;;5.93;;
52668;SDS011;59898;52.786;6.892;2023-05-23T05:26:59;13.35;;;5.97;;
52668;SDS011;59898;52.786;6.892;2023-05-23T05:30:19;12.13;;;6.57;;
52668;SDS011;59898;52.786;6.892;2023-05-23T05:33:40;12.38;;;6.65;;
52668;SDS011;59898;52.786;6.892;2023-05-23T05:37:04;17.10;;;5.93;;
52668;SDS011;59898;52.786;6.892;2023-05-23T05:40:25;12.52;;;6.13;;
52668;SDS011;59898;52.786;6.892;2023-05-23T05:43:45;15.38;;;6.10;;
52668;SDS011;59898;52.786;6.892;2023-05-23T05:47:06;13.20;;;4.75;;
52668;SDS011;59898;52.786;6.892;2023-05-23T05:50:27;12.32;;;5.65;;
52668;SDS011;59898;52.786;6.892;2023-05-23T05:53:47;11.63;;;4.93;;
52668;SDS011;59898;52.786;6.892;2023-05-23T05:57:08;8.55;;;6.00;;
52668;SDS011;59898;52.786;6.892;2023-05-23T06:00:29;14.15;;;5.70;;
52668;SDS011;59898;52.786;6.892;2023-05-23T06:03:49;14.00;;;6.30;;
52668;SDS011;59898;52.786;6.892;2023-05-23T06:07:10;13.25;;;5.18;;
52668;SDS011;59898;52.786;6.892;2023-05-23T06:10:30;19.90;;;7.35;;
52668;SDS011;59898;52.786;6.892;2023-05-23T06:13:51;11.95;;;6.22;;
52668;SDS011;59898;52.786;6.892;2023-05-23T06:17:11;17.50;;;6.13;;
52668;SDS011;59898;52.786;6.892;2023-05-23T06:20:32;15.23;;;6.32;;
52668;SDS011;59898;52.786;6.892;2023-05-23T06:23:52;13.45;;;7.53;;
52668;SDS011;59898;52.786;6.892;2023-05-23T06:27:13;12.98;;;7.78;;
52668;SDS011;59898;52.786;6.892;2023-05-23T06:30:34;18.70;;;7.70;;
52668;SDS011;59898;52.786;6.892;2023-05-23T06:33:56;18.38;;;8.90;;
52668;SDS011;59898;52.786;6.892;2023-05-23T06:37:17;17.55;;;7.72;;
52668;SDS011;59898;52.786;6.892;2023-05-23T06:40:38;20.42;;;8.73;;
52668;SDS011;59898;52.786;6.892;2023-05-23T06:43:58;13.82;;;7.80;;
52668;SDS011;59898;52.786;6.892;2023-05-23T06:47:19;13.43;;;7.45;;
52668;SDS011;59898;52.786;6.892;2023-05-23T06:50:39;14.63;;;7.38;;
52668;SDS011;59898;52.786;6.892;2023-05-23T06:54:00;17.08;;;7.00;;
52668;SDS011;59898;52.786;6.892;2023-05-23T06:57:21;21.08;;;6.65;;
52668;SDS011;59898;52.786;6.892;2023-05-23T07:00:41;15.10;;;8.70;;
52668;SDS011;59898;52.786;6.892;2023-05-23T07:04:02;15.20;;;6.40;;
52668;SDS011;59898;52.786;6.892;2023-05-23T07:07:22;11.32;;;6.20;;
52668;SDS011;59898;52.786;6.892;2023-05-23T07:10:43;11.60;;;5.43;;
52668;SDS011;59898;52.786;6.892;2023-05-23T07:14:03;10.02;;;3.90;;
52668;SDS011;59898;52.786;6.892;2023-05-23T07:17:26;8.35;;;4.50;;
52668;SDS011;59898;52.786;6.892;2023-05-23T07:20:49;16.02;;;4.50;;
52668;SDS011;59898;52.786;6.892;2023-05-23T07:24:10;10.90;;;4.53;;
52668;SDS011;59898;52.786;6.892;2023-05-23T07:27:30;16.50;;;5.50;;
52668;SDS011;59898;52.786;6.892;2023-05-23T07:30:51;15.45;;;4.85;;
52668;SDS011;59898;52.786;6.892;2023-05-23T07:34:11;15.40;;;4.97;;
52668;SDS011;59898;52.786;6.892;2023-05-23T07:37:32;17.08;;;5.30;;
52668;SDS011;59898;52.786;6.892;2023-05-23T07:40:52;11.48;;;4.53;;
52668;SDS011;59898;52.786;6.892;2023-05-23T07:44:13;10.85;;;4.93;;
52668;SDS011;59898;52.786;6.892;2023-05-23T07:47:34;20.02;;;6.03;;
52668;SDS011;59898;52.786;6.892;2023-05-23T07:50:54;12.18;;;5.43;;
52668;SDS011;59898;52.786;6.892;2023-05-23T07:54:15;16.70;;;5.20;;
52668;SDS011;59898;52.786;6.892;2023-05-23T07:57:35;14.25;;;4.93;;
52668;SDS011;59898;52.786;6.892;2023-05-23T08:00:56;19.02;;;5.53;;
52668;SDS011;59898;52.786;6.892;2023-05-23T08:04:19;26.20;;;15.98;;
52668;SDS011;59898;52.786;6.892;2023-05-23T08:07:40;14.15;;;6.05;;
52668;SDS011;59898;52.786;6.892;2023-05-23T08:11:01;17.08;;;5.40;;
52668;SDS011;59898;52.786;6.892;2023-05-23T08:14:21;11.63;;;5.60;;
52668;SDS011;59898;52.786;6.892;2023-05-23T08:17:42;11.27;;;4.25;;
52668;SDS011;59898;52.786;6.892;2023-05-23T08:21:03;13.75;;;4.65;;
52668;SDS011;59898;52.786;6.892;2023-05-23T08:24:23;15.05;;;4.18;;
52668;SDS011;59898;52.786;6.892;2023-05-23T08:27:44;14.45;;;5.05;;
52668;SDS011;59898;52.786;6.892;2023-05-23T08:31:05;12.98;;;4.78;;
52668;SDS011;59898;52.786;6.892;2023-05-23T08:34:26;15.52;;;4.50;;
52668;SDS011;59898;52.786;6.892;2023-05-23T08:37:47;10.32;;;5.03;;
52668;SDS011;59898;52.786;6.892;2023-05-23T08:41:11;16.83;;;5.32;;
52668;SDS011;59898;52.786;6.892;2023-05-23T08:44:37;15.32;;;5.07;;
52668;SDS011;59898;52.786;6.892;2023-05-23T08:47:59;13.77;;;4.47;;
52668;SDS011;59898;52.786;6.892;2023-05-23T08:51:21;10.52;;;4.38;;
52668;SDS011;59898;52.786;6.892;2023-05-23T08:54:44;13.45;;;5.70;;
52668;SDS011;59898;52.786;6.892;2023-05-23T08:58:05;15.40;;;5.78;;
52668;SDS011;59898;52.786;6.892;2023-05-23T09:01:26;12.95;;;5.15;;
52668;SDS011;59898;52.786;6.892;2023-05-23T09:04:47;11.70;;;4.40;;
52668;SDS011;59898;52.786;6.892;2023-05-23T09:08:08;12.60;;;4.00;;
52668;SDS011;59898;52.786;6.892;2023-05-23T09:11:28;20.35;;;4.95;;
52668;SDS011;59898;52.786;6.892;2023-05-23T09:14:49;12.80;;;4.43;;
52668;SDS011;59898;52.786;6.892;2023-05-23T09:18:10;11.63;;;4.05;;
52668;SDS011;59898;52.786;6.892;2023-05-23T09:21:31;13.18;;;5.15;;
52668;SDS011;59898;52.786;6.892;2023-05-23T09:24:52;12.02;;;5.18;;
52668;SDS011;59898;52.786;6.892;2023-05-23T09:28:14;13.65;;;4.90;;
52668;SDS011;59898;52.786;6.892;2023-05-23T09:31:35;11.23;;;4.97;;
52668;SDS011;59898;52.786;6.892;2023-05-23T09:34:56;10.95;;;4.35;;
52668;SDS011;59898;52.786;6.892;2023-05-23T09:38:18;11.05;;;3.90;;
52668;SDS011;59898;52.786;6.892;2023-05-23T09:41:39;15.55;;;5.47;;
52668;SDS011;59898;52.786;6.892;2023-05-23T09:45:00;21.98;;;5.25;;
52668;SDS011;59898;52.786;6.892;2023-05-23T09:48:31;12.65;;;4.50;;
52668;SDS011;59898;52.786;6.892;2023-05-23T09:51:56;9.85;;;4.80;;
52668;SDS011;59898;52.786;6.892;2023-05-23T09:55:17;14.55;;;5.20;;
52668;SDS011;59898;52.786;6.892;2023-05-23T09:58:38;13.02;;;5.20;;
52668;SDS011;59898;52.786;6.892;2023-05-23T10:01:59;12.88;;;4.85;;
52668;SDS011;59898;52.786;6.892;2023-05-23T10:09:02;14.48;;;5.85;;
52668;SDS011;59898;52.786;6.892;2023-05-23T10:16:05;17.08;;;6.70;;
52668;SDS011;59898;52.786;6.892;2023-05-23T10:19:34;18.70;;;5.07;;
52668;SDS011;59898;52.786;6.892;2023-05-23T10:23:03;13.70;;;6.07;;
52668;SDS011;59898;52.786;6.892;2023-05-23T10:26:25;9.48;;;4.43;;
52668;SDS011;59898;52.786;6.892;2023-05-23T10:29:47;8.23;;;4.50;;
52668;SDS011;59898;52.786;6.892;2023-05-23T10:33:08;11.13;;;4.82;;
52668;SDS011;59898;52.786;6.892;2023-05-23T10:36:37;13.15;;;4.80;;
52668;SDS011;59898;52.786;6.892;2023-05-23T10:43:30;15.40;;;4.25;;
52668;SDS011;59898;52.786;6.892;2023-05-23T10:47:00;15.38;;;4.93;;
52668;SDS011;59898;52.786;6.892;2023-05-23T10:50:29;14.40;;;4.38;;
52668;SDS011;59898;52.786;6.892;2023-05-23T10:53:54;11.00;;;4.13;;
52668;SDS011;59898;52.786;6.892;2023-05-23T10:57:18;9.15;;;5.28;;
52668;SDS011;59898;52.786;6.892;2023-05-23T11:00:52;13.55;;;4.45;;
52668;SDS011;59898;52.786;6.892;2023-05-23T11:04:14;8.90;;;4.40;;
52668;SDS011;59898;52.786;6.892;2023-05-23T11:07:34;10.93;;;4.57;;
52668;SDS011;59898;52.786;6.892;2023-05-23T11:10:59;14.18;;;4.30;;
52668;SDS011;59898;52.786;6.892;2023-05-23T11:14:41;11.73;;;3.85;;
52668;SDS011;59898;52.786;6.892;2023-05-23T11:18:18;11.38;;;4.40;;
52668;SDS011;59898;52.786;6.892;2023-05-23T11:21:59;10.35;;;4.32;;
52668;SDS011;59898;52.786;6.892;2023-05-23T11:25:21;9.10;;;3.72;;
52668;SDS011;59898;52.786;6.892;2023-05-23T11:29:02;15.65;;;3.72;;
52668;SDS011;59898;52.786;6.892;2023-05-23T11:32:28;8.45;;;4.50;;
52668;SDS011;59898;52.786;6.892;2023-05-23T11:35:50;11.10;;;3.50;;
52668;SDS011;59898;52.786;6.892;2023-05-23T11:39:11;10.88;;;3.72;;
52668;SDS011;59898;52.786;6.892;2023-05-23T11:42:33;14.50;;;4.75;;
52668;SDS011;59898;52.786;6.892;2023-05-23T11:46:07;12.35;;;4.03;;
52668;SDS011;59898;52.786;6.892;2023-05-23T11:49:29;11.20;;;3.75;;
52668;SDS011;59898;52.786;6.892;2023-05-23T11:52:50;8.80;;;4.07;;
52668;SDS011;59898;52.786;6.892;2023-05-23T11:56:10;9.43;;;4.45;;
52668;SDS011;59898;52.786;6.892;2023-05-23T11:59:33;12.73;;;4.60;;
52668;SDS011;59898;52.786;6.892;2023-05-23T12:02:53;12.95;;;4.40;;
52668;SDS011;59898;52.786;6.892;2023-05-23T12:06:17;8.10;;;4.15;;
52668;SDS011;59898;52.786;6.892;2023-05-23T12:09:42;11.88;;;3.92;;
52668;SDS011;59898;52.786;6.892;2023-05-23T12:13:03;11.80;;;4.43;;
52668;SDS011;59898;52.786;6.892;2023-05-23T12:16:24;8.68;;;3.88;;
52668;SDS011;59898;52.786;6.892;2023-05-23T12:19:48;8.10;;;3.72;;
52668;SDS011;59898;52.786;6.892;2023-05-23T12:23:16;9.98;;;3.70;;
52668;SDS011;59898;52.786;6.892;2023-05-23T12:33:32;9.82;;;3.90;;
52668;SDS011;59898;52.786;6.892;2023-05-23T12:36:56;9.75;;;3.45;;
52668;SDS011;59898;52.786;6.892;2023-05-23T12:40:18;12.27;;;4.47;;
52668;SDS011;59898;52.786;6.892;2023-05-23T12:43:39;12.93;;;4.43;;
52668;SDS011;59898;52.786;6.892;2023-05-23T12:47:08;8.73;;;3.72;;
52668;SDS011;59898;52.786;6.892;2023-05-23T12:50:29;9.70;;;3.70;;
52668;SDS011;59898;52.786;6.892;2023-05-23T12:53:50;11.15;;;4.18;;
52668;SDS011;59898;52.786;6.892;2023-05-23T12:57:11;12.27;;;4.47;;
52668;SDS011;59898;52.786;6.892;2023-05-23T13:00:31;8.43;;;3.67;;
52668;SDS011;59898;52.786;6.892;2023-05-23T13:03:52;12.80;;;3.97;;
52668;SDS011;59898;52.786;6.892;2023-05-23T13:07:13;12.95;;;4.40;;
52668;SDS011;59898;52.786;6.892;2023-05-23T13:10:33;13.27;;;4.38;;
52668;SDS011;59898;52.786;6.892;2023-05-23T13:13:54;11.85;;;4.22;;
52668;SDS011;59898;52.786;6.892;2023-05-23T13:17:15;10.02;;;3.80;;
52668;SDS011;59898;52.786;6.892;2023-05-23T13:20:35;11.05;;;4.35;;
52668;SDS011;59898;52.786;6.892;2023-05-23T13:23:56;16.67;;;4.95;;
52668;SDS011;59898;52.786;6.892;2023-05-23T13:27:17;9.00;;;3.60;;
52668;SDS011;59898;52.786;6.892;2023-05-23T13:30:37;9.63;;;4.63;;
52668;SDS011;59898;52.786;6.892;2023-05-23T13:33:58;9.75;;;3.63;;
52668;SDS011;59898;52.786;6.892;2023-05-23T13:37:18;8.20;;;3.70;;
52668;SDS011;59898;52.786;6.892;2023-05-23T13:40:39;8.43;;;3.78;;
52668;SDS011;59898;52.786;6.892;2023-05-23T13:44:00;12.98;;;4.03;;
52668;SDS011;59898;52.786;6.892;2023-05-23T13:47:20;10.90;;;3.97;;
52668;SDS011;59898;52.786;6.892;2023-05-23T13:50:41;8.13;;;3.35;;
52668;SDS011;59898;52.786;6.892;2023-05-23T13:54:05;8.02;;;4.70;;
52668;SDS011;59898;52.786;6.892;2023-05-23T13:57:26;15.48;;;5.28;;
52668;SDS011;59898;52.786;6.892;2023-05-23T14:00:47;8.13;;;4.07;;
52668;SDS011;59898;52.786;6.892;2023-05-23T14:04:07;11.55;;;3.80;;
52668;SDS011;59898;52.786;6.892;2023-05-23T14:07:28;9.70;;;3.58;;
52668;SDS011;59898;52.786;6.892;2023-05-23T14:10:48;8.70;;;3.28;;
52668;SDS011;59898;52.786;6.892;2023-05-23T14:14:09;7.07;;;2.97;;
52668;SDS011;59898;52.786;6.892;2023-05-23T14:17:30;8.63;;;3.67;;
52668;SDS011;59898;52.786;6.892;2023-05-23T14:20:50;5.53;;;3.28;;
52668;SDS011;59898;52.786;6.892;2023-05-23T14:24:11;9.68;;;3.70;;
52668;SDS011;59898;52.786;6.892;2023-05-23T14:27:31;11.27;;;4.30;;
52668;SDS011;59898;52.786;6.892;2023-05-23T14:30:53;19.85;;;9.88;;
52668;SDS011;59898;52.786;6.892;2023-05-23T14:34:14;15.52;;;5.00;;
52668;SDS011;59898;52.786;6.892;2023-05-23T14:37:35;8.02;;;3.33;;
52668;SDS011;59898;52.786;6.892;2023-05-23T14:40:56;7.88;;;3.67;;
52668;SDS011;59898;52.786;6.892;2023-05-23T14:44:18;11.70;;;4.22;;
52668;SDS011;59898;52.786;6.892;2023-05-23T14:47:39;13.95;;;3.28;;
52668;SDS011;59898;52.786;6.892;2023-05-23T14:51:00;8.60;;;4.10;;
52668;SDS011;59898;52.786;6.892;2023-05-23T14:54:20;8.32;;;3.38;;
52668;SDS011;59898;52.786;6.892;2023-05-23T14:57:41;9.40;;;4.05;;
52668;SDS011;59898;52.786;6.892;2023-05-23T15:01:02;8.57;;;3.05;;
52668;SDS011;59898;52.786;6.892;2023-05-23T15:04:23;10.40;;;4.38;;
52668;SDS011;59898;52.786;6.892;2023-05-23T15:07:43;8.68;;;3.20;;
52668;SDS011;59898;52.786;6.892;2023-05-23T15:11:04;7.57;;;3.17;;
52668;SDS011;59898;52.786;6.892;2023-05-23T15:14:25;10.38;;;3.92;;
52668;SDS011;59898;52.786;6.892;2023-05-23T15:17:49;9.98;;;4.22;;
52668;SDS011;59898;52.786;6.892;2023-05-23T15:21:09;6.93;;;3.58;;
52668;SDS011;59898;52.786;6.892;2023-05-23T15:24:31;10.48;;;4.07;;
52668;SDS011;59898;52.786;6.892;2023-05-23T15:27:52;11.55;;;4.00;;
52668;SDS011;59898;52.786;6.892;2023-05-23T15:31:12;5.85;;;2.85;;
52668;SDS011;59898;52.786;6.892;2023-05-23T15:34:33;12.25;;;4.97;;
52668;SDS011;59898;52.786;6.892;2023-05-23T15:37:54;8.75;;;3.28;;
52668;SDS011;59898;52.786;6.892;2023-05-23T15:41:15;9.35;;;3.55;;
52668;SDS011;59898;52.786;6.892;2023-05-23T15:44:36;10.23;;;4.38;;
52668;SDS011;59898;52.786;6.892;2023-05-23T15:47:57;9.48;;;3.60;;
52668;SDS011;59898;52.786;6.892;2023-05-23T15:51:17;10.35;;;3.50;;
52668;SDS011;59898;52.786;6.892;2023-05-23T15:54:38;9.10;;;3.50;;
52668;SDS011;59898;52.786;6.892;2023-05-23T15:57:58;11.60;;;3.85;;
52668;SDS011;59898;52.786;6.892;2023-05-23T16:01:19;13.93;;;4.35;;
52668;SDS011;59898;52.786;6.892;2023-05-23T16:04:40;8.80;;;3.88;;
52668;SDS011;59898;52.786;6.892;2023-05-23T16:08:00;8.57;;;3.88;;
52668;SDS011;59898;52.786;6.892;2023-05-23T16:11:21;14.70;;;3.80;;
52668;SDS011;59898;52.786;6.892;2023-05-23T16:14:41;11.27;;;3.92;;
52668;SDS011;59898;52.786;6.892;2023-05-23T16:18:02;36.13;;;23.33;;
52668;SDS011;59898;52.786;6.892;2023-05-23T16:21:23;8.43;;;4.53;;
52668;SDS011;59898;52.786;6.892;2023-05-23T16:24:43;9.88;;;3.85;;
52668;SDS011;59898;52.786;6.892;2023-05-23T16:28:04;9.40;;;3.40;;
52668;SDS011;59898;52.786;6.892;2023-05-23T16:31:25;7.97;;;3.90;;
52668;SDS011;59898;52.786;6.892;2023-05-23T16:34:47;9.02;;;4.40;;
52668;SDS011;59898;52.786;6.892;2023-05-23T16:38:07;10.80;;;4.22;;
52668;SDS011;59898;52.786;6.892;2023-05-23T16:41:28;10.57;;;3.88;;
52668;SDS011;59898;52.786;6.892;2023-05-23T16:44:48;10.05;;;3.88;;
52668;SDS011;59898;52.786;6.892;2023-05-23T16:48:09;11.80;;;3.90;;
52668;SDS011;59898;52.786;6.892;2023-05-23T16:51:30;8.63;;;3.58;;
52668;SDS011;59898;52.786;6.892;2023-05-23T16:54:51;13.23;;;3.58;;
52668;SDS011;59898;52.786;6.892;2023-05-23T16:58:11;10.10;;;4.95;;
52668;SDS011;59898;52.786;6.892;2023-05-23T17:01:32;9.10;;;3.53;;
52668;SDS011;59898;52.786;6.892;2023-05-23T17:04:53;14.30;;;3.53;;
52668;SDS011;59898;52.786;6.892;2023-05-23T17:08:14;12.18;;;3.63;;
52668;SDS011;59898;52.786;6.892;2023-05-23T17:11:35;8.68;;;3.55;;
52668;SDS011;59898;52.786;6.892;2023-05-23T17:14:55;9.20;;;3.30;;
52668;SDS011;59898;52.786;6.892;2023-05-23T17:18:16;8.82;;;3.17;;
52668;SDS011;59898;52.786;6.892;2023-05-23T17:21:36;10.52;;;4.65;;
52668;SDS011;59898;52.786;6.892;2023-05-23T17:24:57;12.18;;;3.70;;
52668;SDS011;59898;52.786;6.892;2023-05-23T17:28:20;17.58;;;8.40;;
52668;SDS011;59898;52.786;6.892;2023-05-23T17:31:41;6.97;;;3.95;;
52668;SDS011;59898;52.786;6.892;2023-05-23T17:35:02;11.95;;;4.32;;
52668;SDS011;59898;52.786;6.892;2023-05-23T17:38:23;7.30;;;3.08;;
52668;SDS011;59898;52.786;6.892;2023-05-23T17:41:43;10.07;;;3.47;;
52668;SDS011;59898;52.786;6.892;2023-05-23T17:45:05;13.57;;;3.85;;
52668;SDS011;59898;52.786;6.892;2023-05-23T17:48:26;10.40;;;3.25;;
52668;SDS011;59898;52.786;6.892;2023-05-23T17:51:46;11.20;;;3.60;;
52668;SDS011;59898;52.786;6.892;2023-05-23T17:55:07;6.57;;;3.22;;
52668;SDS011;59898;52.786;6.892;2023-05-23T17:58:28;9.20;;;3.67;;
52668;SDS011;59898;52.786;6.892;2023-05-23T18:01:48;6.88;;;3.20;;
52668;SDS011;59898;52.786;6.892;2023-05-23T18:05:09;8.73;;;3.13;;
52668;SDS011;59898;52.786;6.892;2023-05-23T18:08:29;12.60;;;3.15;;
52668;SDS011;59898;52.786;6.892;2023-05-23T18:11:50;8.55;;;3.00;;
52668;SDS011;59898;52.786;6.892;2023-05-23T18:15:11;10.00;;;5.07;;
52668;SDS011;59898;52.786;6.892;2023-05-23T18:18:32;8.00;;;3.17;;
52668;SDS011;59898;52.786;6.892;2023-05-23T18:21:53;7.53;;;3.13;;
52668;SDS011;59898;52.786;6.892;2023-05-23T18:25:13;8.68;;;3.90;;
52668;SDS011;59898;52.786;6.892;2023-05-23T18:28:38;9.57;;;3.50;;
52668;SDS011;59898;52.786;6.892;2023-05-23T18:31:58;7.15;;;2.72;;
52668;SDS011;59898;52.786;6.892;2023-05-23T18:35:19;12.82;;;4.57;;
52668;SDS011;59898;52.786;6.892;2023-05-23T18:38:40;10.85;;;3.72;;
52668;SDS011;59898;52.786;6.892;2023-05-23T18:42:01;12.52;;;3.42;;
52668;SDS011;59898;52.786;6.892;2023-05-23T18:45:21;12.85;;;3.67;;
52668;SDS011;59898;52.786;6.892;2023-05-23T18:48:42;13.07;;;4.03;;
52668;SDS011;59898;52.786;6.892;2023-05-23T18:52:02;22.38;;;10.90;;
52668;SDS011;59898;52.786;6.892;2023-05-23T18:55:25;10.52;;;3.53;;
52668;SDS011;59898;52.786;6.892;2023-05-23T18:58:45;12.48;;;3.90;;
52668;SDS011;59898;52.786;6.892;2023-05-23T19:02:06;14.82;;;3.92;;
52668;SDS011;59898;52.786;6.892;2023-05-23T19:05:27;10.65;;;3.65;;
52668;SDS011;59898;52.786;6.892;2023-05-23T19:08:48;10.60;;;3.60;;
52668;SDS011;59898;52.786;6.892;2023-05-23T19:12:08;13.43;;;3.53;;
52668;SDS011;59898;52.786;6.892;2023-05-23T19:15:29;13.35;;;4.22;;
52668;SDS011;59898;52.786;6.892;2023-05-23T19:18:50;14.00;;;4.15;;
52668;SDS011;59898;52.786;6.892;2023-05-23T19:22:10;13.25;;;3.67;;
52668;SDS011;59898;52.786;6.892;2023-05-23T19:25:31;13.25;;;4.63;;
52668;SDS011;59898;52.786;6.892;2023-05-23T19:28:51;11.63;;;3.38;;
52668;SDS011;59898;52.786;6.892;2023-05-23T19:32:12;12.55;;;5.72;;
52668;SDS011;59898;52.786;6.892;2023-05-23T19:35:33;15.98;;;6.32;;
52668;SDS011;59898;52.786;6.892;2023-05-23T19:38:53;14.80;;;4.88;;
52668;SDS011;59898;52.786;6.892;2023-05-23T19:42:14;12.23;;;5.22;;
52668;SDS011;59898;52.786;6.892;2023-05-23T19:45:35;18.38;;;3.90;;
52668;SDS011;59898;52.786;6.892;2023-05-23T19:48:56;11.35;;;3.95;;
52668;SDS011;59898;52.786;6.892;2023-05-23T19:52:16;16.27;;;4.30;;
52668;SDS011;59898;52.786;6.892;2023-05-23T19:55:37;12.63;;;4.00;;
52668;SDS011;59898;52.786;6.892;2023-05-23T19:58:57;14.50;;;3.33;;
52668;SDS011;59898;52.786;6.892;2023-05-23T20:02:18;9.60;;;3.72;;
52668;SDS011;59898;52.786;6.892;2023-05-23T20:05:39;13.80;;;4.35;;
52668;SDS011;59898;52.786;6.892;2023-05-23T20:08:59;10.95;;;3.65;;
52668;SDS011;59898;52.786;6.892;2023-05-23T20:12:20;15.27;;;4.47;;
52668;SDS011;59898;52.786;6.892;2023-05-23T20:15:40;12.77;;;3.58;;
52668;SDS011;59898;52.786;6.892;2023-05-23T20:19:01;15.48;;;4.97;;
52668;SDS011;59898;52.786;6.892;2023-05-23T20:22:22;12.35;;;4.90;;
52668;SDS011;59898;52.786;6.892;2023-05-23T20:25:42;12.07;;;3.72;;
52668;SDS011;59898;52.786;6.892;2023-05-23T20:29:03;15.45;;;4.88;;